| time (UTC) | temp C | wind direction | speed KPH | gust KPH | rain 1hr cm | rain 24hr cm | rain mn cm | humidity % | barometer mb |
| 20260906220058 | 34 | 192 | 11.3 | 29.0 | 0.00 | 0.00 | 0.00 | 44 | 1007.6 |
| 20260906214555 | 35 | 142 | 9.7 | 19.3 | 0.00 | 0.00 | 0.00 | 42 | 1007.6 |
| 20260906213057 | 34 | 146 | 6.4 | 20.9 | 0.00 | 0.00 | 0.00 | 43 | 1007.9 |
| 20260906211550 | 35 | 146 | 6.4 | 22.5 | 0.00 | 0.00 | 0.00 | 41 | 1008.0 |
| 20260906210051 | 35 | 62 | 9.7 | 19.3 | 0.00 | 0.00 | 0.00 | 41 | 1008.3 |
| 20260906204601 | 35 | 99 | 14.5 | 20.9 | 0.00 | 0.00 | 0.00 | 41 | 1008.6 |
| 20260906203046 | 35 | 95 | 4.8 | 16.1 | 0.00 | 0.00 | 0.00 | 42 | 1008.7 |
| 20260906201557 | 34 | 108 | 6.4 | 22.5 | 0.00 | 0.00 | 0.00 | 43 | 1009.1 |
| 20260906200040 | 34 | 102 | 1.6 | 17.7 | 0.00 | 0.00 | 0.00 | 44 | 1009.1 |
| 20260906194538 | 33 | 133 | 12.9 | 19.3 | 0.00 | 0.00 | 0.00 | 44 | 1009.3 |
| 20260906193037 | 34 | 136 | 12.9 | 19.3 | 0.00 | 0.00 | 0.00 | 44 | 1009.5 |
| 20260906191535 | 33 | 123 | 11.3 | 22.5 | 0.00 | 0.00 | 0.00 | 46 | 1009.7 |
| 20260906190032 | 33 | 88 | 8.0 | 20.9 | 0.00 | 0.00 | 0.00 | 46 | 1010.0 |
| 20260906184528 | 33 | 110 | 4.8 | 24.1 | 0.00 | 0.00 | 0.00 | 46 | 1010.1 |
| 20260906183025 | 33 | 150 | 17.7 | 27.4 | 0.00 | 0.00 | 0.00 | 46 | 1010.4 |
| 20260906181521 | 32 | 146 | 12.9 | 25.7 | 0.00 | 0.00 | 0.00 | 48 | 1010.6 |
| 20260906180018 | 32 | 107 | 14.5 | 22.5 | 0.00 | 0.00 | 0.00 | 49 | 1010.8 |
| 20260906174514 | 32 | 92 | 16.1 | 29.0 | 0.00 | 0.00 | 0.00 | 50 | 1011.1 |
| 20260906173011 | 32 | 59 | 14.5 | 24.1 | 0.00 | 0.00 | 0.00 | 50 | 1011.3 |
| 20260906171506 | 32 | 85 | 12.9 | 22.5 | 0.00 | 0.00 | 0.00 | 53 | 1011.4 |
| 20260906170004 | 32 | 87 | 11.3 | 19.3 | 0.00 | 0.00 | 0.00 | 54 | 1011.5 |
| 20260906164608 | 31 | 125 | 9.7 | 17.7 | 0.00 | 0.00 | 0.00 | 55 | 1011.5 |
| 20260906163054 | 31 | 115 | 4.8 | 12.9 | 0.00 | 0.00 | 0.00 | 59 | 1011.6 |
| 20260906161556 | 31 | 89 | 3.2 | 9.7 | 0.00 | 0.00 | 0.00 | 61 | 1011.7 |
| 20260906160046 | 30 | 155 | 1.6 | 9.7 | 0.00 | 0.00 | 0.00 | 62 | 1011.8 |
| 20260906154547 | 30 | 157 | 4.8 | 8.0 | 0.00 | 0.00 | 0.00 | 64 | 1011.7 |
| 20260906153037 | 29 | 157 | 1.6 | 4.8 | 0.00 | 0.00 | 0.00 | 65 | 1011.7 |
| 20260906151535 | 28 | 157 | 3.2 | 9.7 | 0.00 | 0.00 | 0.00 | 68 | 1011.6 |
| 20260906150034 | 28 | 153 | 0.0 | 4.8 | 0.00 | 0.00 | 0.00 | 71 | 1011.5 |
| 20260906144527 | 27 | 153 | 3.2 | 8.0 | 0.00 | 0.03 | 0.00 | 72 | 1011.5 |
| 20260906143025 | 27 | 152 | 3.2 | 8.0 | 0.00 | 0.03 | 0.00 | 74 | 1011.5 |
| 20260906141518 | 26 | 152 | 1.6 | 8.0 | 0.00 | 0.03 | 0.00 | 77 | 1011.6 |
| 20260906140030 | 25 | 153 | 0.0 | 4.8 | 0.00 | 0.03 | 0.00 | 81 | 1011.5 |
| 20260906134512 | 25 | 153 | 3.2 | 8.0 | 0.00 | 0.03 | 0.00 | 82 | 1011.5 |
| 20260906133020 | 23 | 154 | 0.0 | 3.2 | 0.00 | 0.03 | 0.00 | 87 | 1011.4 |
| 20260906131503 | 22 | 154 | 0.0 | 0.0 | 0.00 | 0.03 | 0.00 | 89 | 1011.2 |
| 20260906124555 | 22 | 154 | 0.0 | 0.0 | 0.00 | 0.03 | 0.00 | 90 | 1011.0 |
| 20260906123059 | 22 | 154 | 0.0 | 1.6 | 0.00 | 0.03 | 0.00 | 89 | 1010.8 |
| 20260906121549 | 22 | 154 | 0.0 | 4.8 | 0.00 | 0.03 | 0.00 | 89 | 1010.6 |
| 20260906120056 | 22 | 154 | 0.0 | 0.0 | 0.00 | 0.03 | 0.00 | 88 | 1010.5 |
| 20260906114559 | 22 | 154 | 0.0 | 1.6 | 0.00 | 0.03 | 0.00 | 87 | 1010.3 |
| 20260906113045 | 22 | 154 | 0.0 | 1.6 | 0.00 | 0.03 | 0.00 | 86 | 1010.1 |
| 20260906111548 | 22 | 153 | 1.6 | 4.8 | 0.00 | 0.03 | 0.00 | 86 | 1010.0 |
| 20260906110042 | 22 | 151 | 0.0 | 0.0 | 0.00 | 0.03 | 0.00 | 86 | 1009.9 |
| 20260906104544 | 22 | 151 | 0.0 | 3.2 | 0.00 | 0.03 | 0.00 | 86 | 1010.0 |
| 20260906103048 | 22 | 151 | 1.6 | 3.2 | 0.00 | 0.03 | 0.00 | 86 | 1009.9 |
| 20260906101542 | 22 | 151 | 1.6 | 9.7 | 0.00 | 0.03 | 0.00 | 86 | 1009.7 |
| 20260906100045 | 22 | 157 | 0.0 | 4.8 | 0.00 | 0.03 | 0.00 | 88 | 1009.6 |
| 20260906094548 | 22 | 157 | 0.0 | 3.2 | 0.00 | 0.03 | 0.00 | 88 | 1009.3 |
| 20260906093040 | 22 | 157 | 0.0 | 0.0 | 0.00 | 0.03 | 0.00 | 87 | 1009.3 |
| 20260906091538 | 23 | 157 | 0.0 | 0.0 | 0.00 | 0.03 | 0.00 | 86 | 1009.2 |
| 20260906090034 | 23 | 157 | 0.0 | 0.0 | 0.00 | 0.03 | 0.00 | 86 | 1009.2 |
| 20260906084532 | 23 | 157 | 0.0 | 0.0 | 0.00 | 0.03 | 0.00 | 85 | 1009.3 |
| 20260906083031 | 23 | 157 | 0.0 | 0.0 | 0.00 | 0.03 | 0.00 | 84 | 1009.4 |
| 20260906081528 | 24 | 157 | 0.0 | 0.0 | 0.00 | 0.03 | 0.00 | 84 | 1009.4 |
| 20260906080027 | 24 | 157 | 0.0 | 0.0 | 0.00 | 0.03 | 0.00 | 81 | 1009.3 |
| 20260906074525 | 24 | 157 | 0.0 | 4.8 | 0.00 | 0.03 | 0.00 | 82 | 1009.4 |
| 20260906073024 | 24 | 157 | 1.6 | 3.2 | 0.00 | 0.03 | 0.00 | 80 | 1009.4 |
| 20260906071518 | 25 | 157 | 0.0 | 0.0 | 0.00 | 0.03 | 0.00 | 79 | 1009.7 |
| 20260906070022 | 25 | 157 | 0.0 | 0.0 | 0.00 | 0.03 | 0.00 | 76 | 1009.9 |
| 20260906064513 | 25 | 157 | 0.0 | 1.6 | 0.00 | 0.03 | 0.00 | 76 | 1010.0 |
| 20260906063009 | 26 | 157 | 0.0 | 0.0 | 0.00 | 0.03 | 0.00 | 72 | 1010.1 |
| 20260906061509 | 26 | 157 | 0.0 | 1.6 | 0.00 | 0.03 | 0.00 | 69 | 1010.2 |
| 20260906060004 | 27 | 157 | 0.0 | 0.0 | 0.00 | 0.03 | 0.00 | 67 | 1010.4 |
| 20260906054627 | 27 | 157 | 0.0 | 0.0 | 0.00 | 0.03 | 0.00 | 64 | 1010.4 |
| 20260906053056 | 28 | 157 | 1.6 | 8.0 | 0.00 | 0.03 | 0.00 | 62 | 1010.3 |
| 20260906051555 | 28 | 157 | 3.2 | 12.9 | 0.00 | 0.03 | 0.00 | 60 | 1010.3 |
| 20260906044553 | 28 | 125 | 1.6 | 6.4 | 0.00 | 0.03 | 0.03 | 57 | 1010.4 |
| 20260906043051 | 29 | 125 | 4.8 | 11.3 | 0.00 | 0.03 | 0.03 | 55 | 1010.3 |
| 20260906041551 | 29 | 125 | 8.0 | 17.7 | 0.00 | 0.03 | 0.03 | 54 | 1010.2 |
| 20260906040056 | 29 | 117 | 9.7 | 19.3 | 0.00 | 0.03 | 0.03 | 54 | 1010.2 |
| 20260906034553 | 29 | 128 | 8.0 | 14.5 | 0.00 | 0.03 | 0.03 | 55 | 1009.9 |
| 20260906033051 | 29 | 119 | 4.8 | 12.9 | 0.00 | 0.03 | 0.03 | 56 | 1009.7 |
| 20260906031608 | 29 | 134 | 8.0 | 16.1 | 0.00 | 0.03 | 0.03 | 58 | 1009.3 |
| 20260906030049 | 29 | 132 | 4.8 | 8.0 | 0.00 | 0.03 | 0.03 | 59 | 1009.2 |
| 20260906024559 | 30 | 132 | 4.8 | 8.0 | 0.00 | 0.03 | 0.03 | 58 | 1008.7 |
| 20260906023057 | 30 | 132 | 4.8 | 8.0 | 0.00 | 0.03 | 0.03 | 56 | 1008.5 |
| 20260906021547 | 31 | 132 | 6.4 | 11.3 | 0.00 | 0.03 | 0.03 | 55 | 1008.2 |
| 20260906020046 | 31 | 132 | 3.2 | 8.0 | 0.00 | 0.03 | 0.03 | 53 | 1008.1 |
| 20260906014547 | 31 | 132 | 6.4 | 11.3 | 0.00 | 0.03 | 0.03 | 52 | 1007.9 |
| 20260906013049 | 32 | 136 | 8.0 | 12.9 | 0.00 | 0.03 | 0.03 | 50 | 1007.6 |
| 20260906011546 | 32 | 130 | 8.0 | 17.7 | 0.00 | 0.03 | 0.03 | 48 | 1007.5 |
| 20260906010050 | 33 | 125 | 9.7 | 19.3 | 0.00 | 0.03 | 0.03 | 46 | 1007.4 |
| 20260906004545 | 34 | 135 | 9.7 | 19.3 | 0.00 | 0.03 | 0.03 | 44 | 1007.4 |
| 20260906003044 | 35 | 120 | 11.3 | 20.9 | 0.00 | 0.03 | 0.03 | 43 | 1007.3 |
| 20260906001544 | 35 | 130 | 11.3 | 16.1 | 0.00 | 0.03 | 0.03 | 41 | 1007.3 |
| 20260906000053 | 35 | 120 | 11.3 | 16.1 | 0.00 | 0.03 | 0.03 | 42 | 1007.2 |
| 20260905234549 | 35 | 119 | 8.0 | 16.1 | 0.00 | 0.81 | 0.03 | 41 | 1007.1 |
| 20260905233041 | 35 | 119 | 8.0 | 22.5 | 0.00 | 0.81 | 0.03 | 41 | 1007.0 |
| 20260905231541 | 35 | 96 | 9.7 | 17.7 | 0.00 | 0.81 | 0.03 | 40 | 1007.0 |
| 20260905230040 | 35 | 103 | 12.9 | 16.1 | 0.00 | 0.81 | 0.03 | 41 | 1007.0 |
| 20260905224539 | 36 | 69 | 11.3 | 19.3 | 0.00 | 4.29 | 0.03 | 41 | 1007.0 |
| 20260905223037 | 36 | 69 | 9.7 | 14.5 | 0.00 | 4.29 | 0.03 | 40 | 1007.1 |
| 20260905221535 | 35 | 103 | 11.3 | 20.9 | 0.00 | 4.29 | 0.03 | 41 | 1007.3 |